Time;durP1;ratioP1;P1;durP2;ratioP2;P2;SDS_P1;SDS_P2;PMS_P1;PMS_P2;Temp;Humidity;BMP_temperature;BMP_pressure;BME280_temperature;BME280_humidity;BME280_pressure;Samples;Min_cycle;Max_cycle;Signal;HPM_P1;HPM_P2
2023/01/15 00:00:56;;;;;;;3.10;3.00;;;8.70;1.00;;;;;;6287876;28;20238;-56
2023/01/15 00:04:02;;;;;;;3.00;2.90;;;8.70;1.00;;;;;;6281998;28;20255;-56
2023/01/15 00:07:06;;;;;;;3.40;3.40;;;8.80;1.00;;;;;;6285229;28;20263;-56
2023/01/15 00:10:11;;;;;;;3.67;3.57;;;8.90;1.00;;;;;;6287008;28;20237;-57
2023/01/15 00:13:14;;;;;;;3.77;3.67;;;8.90;1.00;;;;;;6287311;28;20744;-57
2023/01/15 00:16:19;;;;;;;3.10;3.10;;;8.80;1.00;;;;;;6277936;28;20617;-56
2023/01/15 00:19:22;;;;;;;3.40;3.30;;;8.90;1.00;;;;;;6261885;28;20740;-56
2023/01/15 00:22:28;;;;;;;4.00;3.50;;;8.90;1.00;;;;;;6268116;28;20294;-56
2023/01/15 00:28:52;;;;;;;3.87;3.57;;;8.90;1.00;;;;;;6286927;28;20237;-56
2023/01/15 00:31:57;;;;;;;3.30;3.20;;;8.90;1.00;;;;;;6286718;28;20237;-56
2023/01/15 00:35:00;;;;;;;3.00;2.90;;;8.90;1.00;;;;;;6279994;28;20225;-57
2023/01/15 00:38:05;;;;;;;3.37;3.37;;;8.90;1.00;;;;;;6285732;28;20245;-57
2023/01/15 00:41:08;;;;;;;3.10;3.10;;;8.90;1.00;;;;;;6286045;28;20613;-56
2023/01/15 00:44:11;;;;;;;2.97;2.90;;;8.90;1.00;;;;;;6273816;28;20230;-56
2023/01/15 00:47:14;;;;;;;3.27;3.20;;;8.90;1.00;;;;;;6262690;28;20233;-57
2023/01/15 00:50:17;;;;;;;3.50;3.40;;;8.90;1.00;;;;;;6263266;28;20241;-57
2023/01/15 00:53:22;;;;;;;2.90;2.90;;;9.00;1.00;;;;;;6267212;28;20579;-55
2023/01/15 00:56:25;;;;;;;3.20;3.10;;;9.00;1.00;;;;;;6261620;28;20231;-55
2023/01/15 00:59:28;;;;;;;2.87;2.83;;;9.00;1.00;;;;;;6260597;28;20753;-56
2023/01/15 01:02:31;;;;;;;3.10;3.00;;;9.00;1.00;;;;;;6279771;28;20237;-56
2023/01/15 01:05:34;;;;;;;3.00;3.00;;;9.10;1.00;;;;;;6273009;28;20252;-57
2023/01/15 01:08:38;;;;;;;2.70;2.70;;;9.00;1.00;;;;;;6278491;28;20233;-57
2023/01/15 01:11:41;;;;;;;2.70;2.70;;;9.10;1.00;;;;;;6285902;28;20243;-55
2023/01/15 01:14:44;;;;;;;3.00;2.90;;;9.10;1.00;;;;;;6269058;28;20267;-56
2023/01/15 01:17:48;;;;;;;3.03;2.87;;;9.10;1.00;;;;;;6261357;28;20480;-57
2023/01/15 01:20:51;;;;;;;2.80;2.80;;;9.20;1.00;;;;;;6260468;28;20230;-56
2023/01/15 01:23:58;;;;;;;2.60;2.60;;;9.20;1.00;;;;;;6280035;28;20233;-56
2023/01/15 01:27:01;;;;;;;3.20;3.10;;;9.20;1.00;;;;;;6285236;28;20233;-56
2023/01/15 01:30:05;;;;;;;2.90;2.90;;;9.20;1.00;;;;;;6279430;28;20702;-55
2023/01/15 01:33:08;;;;;;;3.20;3.00;;;9.20;1.00;;;;;;6266083;28;20244;-56
2023/01/15 01:36:11;;;;;;;2.50;2.50;;;9.20;1.00;;;;;;6284567;28;20239;-56
2023/01/15 01:39:18;;;;;;;2.70;2.60;;;9.30;1.00;;;;;;6277476;28;20241;-57
2023/01/15 01:42:21;;;;;;;2.63;2.50;;;9.30;1.00;;;;;;6285446;28;20790;-55
2023/01/15 01:45:26;;;;;;;2.93;2.83;;;9.30;1.00;;;;;;6284604;28;20244;-56
2023/01/15 01:48:33;;;;;;;3.00;3.00;;;9.40;1.00;;;;;;6266025;28;20242;-56
2023/01/15 01:51:40;;;;;;;3.00;3.00;;;9.40;1.00;;;;;;6260517;28;20290;-56
2023/01/15 01:54:47;;;;;;;2.83;2.83;;;9.30;1.00;;;;;;6260353;28;20237;-57
2023/01/15 01:57:52;;;;;;;2.77;2.67;;;9.40;1.00;;;;;;6259950;28;20408;-56
2023/01/15 02:00:56;;;;;;;2.50;2.50;;;9.40;1.00;;;;;;6258503;28;20237;-56
2023/01/15 02:04:00;;;;;;;2.53;2.53;;;9.40;1.00;;;;;;6265028;28;20590;-56
2023/01/15 02:07:04;;;;;;;2.80;2.60;;;9.40;1.00;;;;;;6284026;28;20237;-56
2023/01/15 02:10:14;;;;;;;2.70;2.70;;;9.30;1.00;;;;;;6281388;28;20248;-57
2023/01/15 02:13:27;;;;;;;2.60;2.60;;;9.30;1.00;;;;;;6255981;28;20235;-56
2023/01/15 02:16:36;;;;;;;2.90;2.80;;;9.30;1.00;;;;;;6259974;28;20234;-55
2023/01/15 02:19:51;;;;;;;2.53;2.53;;;9.30;1.00;;;;;;6257928;28;20315;-55
2023/01/15 02:23:07;;;;;;;2.80;2.77;;;9.20;1.00;;;;;;6258808;28;20608;-55
2023/01/15 02:26:28;;;;;;;2.70;2.70;;;9.20;1.00;;;;;;6259205;28;20226;-56
2023/01/15 02:29:39;;;;;;;2.90;2.90;;;9.20;1.00;;;;;;6257956;28;20238;-56
2023/01/15 02:32:46;;;;;;;2.70;2.50;;;9.10;1.00;;;;;;6268451;28;20233;-56
2023/01/15 02:35:56;;;;;;;2.70;2.63;;;9.10;1.00;;;;;;6283812;28;20709;-57
2023/01/15 02:39:03;;;;;;;2.63;2.53;;;9.20;1.00;;;;;;6279219;28;20233;-56
2023/01/15 02:42:09;;;;;;;2.60;2.60;;;9.10;1.00;;;;;;6276100;28;20843;-55
2023/01/15 02:45:17;;;;;;;2.50;2.50;;;9.00;1.00;;;;;;6281027;28;20237;-56
2023/01/15 02:48:26;;;;;;;2.70;2.70;;;9.00;1.00;;;;;;6275326;28;20461;-56
2023/01/15 02:51:36;;;;;;;2.67;2.67;;;9.00;1.00;;;;;;6283520;28;20256;-56
2023/01/15 02:54:45;;;;;;;2.67;2.67;;;9.00;1.00;;;;;;6262850;28;20249;-56
2023/01/15 02:57:53;;;;;;;2.60;2.50;;;8.90;1.00;;;;;;6258647;28;20648;-56
2023/01/15 03:01:01;;;;;;;2.40;2.40;;;9.00;1.00;;;;;;6259321;28;20234;-55
2023/01/15 03:04:10;;;;;;;2.30;2.30;;;9.00;1.00;;;;;;6279449;28;20604;-55
2023/01/15 03:07:18;;;;;;;2.50;2.50;;;9.00;1.00;;;;;;6279561;28;20229;-55
2023/01/15 03:10:30;;;;;;;2.47;2.47;;;9.00;1.00;;;;;;6275653;28;20292;-56
2023/01/15 03:13:40;;;;;;;2.60;2.60;;;9.00;1.00;;;;;;6258604;28;20241;-57
2023/01/15 03:16:48;;;;;;;2.50;2.40;;;9.00;1.00;;;;;;6258870;28;20257;-57
2023/01/15 03:19:58;;;;;;;2.70;2.50;;;9.00;1.00;;;;;;6258421;28;20266;-56
2023/01/15 03:23:07;;;;;;;2.67;2.47;;;9.00;1.00;;;;;;6258915;28;20253;-55
2023/01/15 03:26:11;;;;;;;2.50;2.40;;;9.00;1.00;;;;;;6258705;28;20252;-55
2023/01/15 03:29:14;;;;;;;2.47;2.47;;;9.00;1.00;;;;;;6280454;28;20624;-56
2023/01/15 03:32:19;;;;;;;2.50;2.40;;;9.00;1.00;;;;;;6276889;28;20233;-54
2023/01/15 03:35:46;;;;;;;2.40;2.40;;;8.90;1.00;;;;;;6284827;28;20229;-56
2023/01/15 03:38:50;;;;;;;2.30;2.30;;;9.00;1.00;;;;;;6286377;28;20258;-55
2023/01/15 03:42:05;;;;;;;2.50;2.50;;;9.00;1.00;;;;;;6275540;28;20238;-56
2023/01/15 03:45:15;;;;;;;2.50;2.50;;;9.00;1.00;;;;;;6262911;28;20785;-56
2023/01/15 03:48:25;;;;;;;2.50;2.50;;;9.00;1.00;;;;;;6263115;28;20249;-58
2023/01/15 03:51:34;;;;;;;2.33;2.33;;;9.00;1.00;;;;;;6282868;28;20226;-56
2023/01/15 03:54:48;;;;;;;2.70;2.60;;;9.00;1.00;;;;;;6261404;28;20233;-56
2023/01/15 03:57:56;;;;;;;2.30;2.30;;;9.00;1.00;;;;;;6261653;28;20238;-55
2023/01/15 04:01:03;;;;;;;2.30;2.30;;;9.10;1.00;;;;;;6262435;28;20234;-55
2023/01/15 04:04:08;;;;;;;2.30;2.30;;;9.00;1.00;;;;;;6270897;28;20248;-56
2023/01/15 04:07:12;;;;;;;2.53;2.53;;;9.10;1.00;;;;;;6283248;28;20301;-57
2023/01/15 04:10:16;;;;;;;2.70;2.70;;;9.10;1.00;;;;;;6282062;28;20241;-56
2023/01/15 04:13:19;;;;;;;2.20;2.20;;;9.10;1.00;;;;;;6286554;28;20239;-57
2023/01/15 04:16:26;;;;;;;2.60;2.50;;;8.90;1.00;;;;;;6287433;28;20399;-56
2023/01/15 04:19:30;;;;;;;2.60;2.50;;;8.90;1.00;;;;;;6286059;28;20233;-56
2023/01/15 04:22:34;;;;;;;2.83;2.70;;;8.50;1.00;;;;;;6270015;28;20610;-56
2023/01/15 04:25:39;;;;;;;2.60;2.50;;;8.40;1.00;;;;;;6261506;28;20230;-56
2023/01/15 04:28:43;;;;;;;2.60;2.50;;;8.30;1.00;;;;;;6262119;28;20629;-60
2023/01/15 04:31:46;;;;;;;2.60;2.60;;;8.30;1.00;;;;;;6255071;28;20488;-57
2023/01/15 04:34:50;;;;;;;2.57;2.57;;;8.20;1.00;;;;;;6276461;28;20234;-58
2023/01/15 04:37:55;;;;;;;2.67;2.67;;;8.20;1.00;;;;;;6274644;28;20753;-55
2023/01/15 04:44:25;;;;;;;2.70;2.60;;;8.10;1.00;;;;;;6254807;28;20316;-56
2023/01/15 04:47:30;;;;;;;2.43;2.43;;;7.80;1.00;;;;;;6279412;28;20737;-57
2023/01/15 04:50:35;;;;;;;2.17;2.17;;;7.50;1.00;;;;;;6269010;28;20495;-57
2023/01/15 04:53:39;;;;;;;5.03;2.60;;;7.20;1.00;;;;;;6280057;28;20237;-57
2023/01/15 04:56:45;;;;;;;2.93;2.83;;;7.20;1.00;;;;;;6277533;28;20372;-57
2023/01/15 04:59:48;;;;;;;2.77;2.77;;;7.10;1.00;;;;;;6278585;28;20245;-57
2023/01/15 05:02:51;;;;;;;2.80;2.70;;;7.10;1.00;;;;;;6275127;28;20288;-57
2023/01/15 05:05:55;;;;;;;3.03;2.80;;;6.80;1.00;;;;;;6268848;28;20280;-57
2023/01/15 05:08:58;;;;;;;2.83;2.60;;;7.00;1.00;;;;;;6277422;28;20380;-57
2023/01/15 05:12:02;;;;;;;2.67;2.67;;;6.90;1.00;;;;;;6277674;28;20229;-56
2023/01/15 05:15:06;;;;;;;2.57;2.53;;;6.90;1.00;;;;;;6275060;28;20259;-56
2023/01/15 05:18:13;;;;;;;2.70;2.60;;;6.70;1.00;;;;;;6280041;28;20229;-57
2023/01/15 05:21:20;;;;;;;2.50;2.50;;;6.70;1.00;;;;;;6283943;28;20777;-57
2023/01/15 05:24:23;;;;;;;2.50;2.50;;;6.50;1.00;;;;;;6283627;28;20240;-57
2023/01/15 05:27:26;;;;;;;3.67;2.80;;;6.70;1.00;;;;;;6277298;28;20840;-57
2023/01/15 05:30:29;;;;;;;2.80;2.80;;;6.90;1.00;;;;;;6283522;28;20237;-61
2023/01/15 05:33:32;;;;;;;3.37;3.03;;;6.40;1.00;;;;;;6280678;28;20760;-58
2023/01/15 05:36:37;;;;;;;2.77;2.70;;;6.60;1.00;;;;;;6276229;28;20584;-55
2023/01/15 05:39:40;;;;;;;2.60;2.60;;;6.40;1.00;;;;;;6280780;28;20266;-60
2023/01/15 05:42:43;;;;;;;2.60;2.60;;;6.30;1.00;;;;;;6273382;28;20460;-57
2023/01/15 05:45:46;;;;;;;2.70;2.70;;;6.60;1.00;;;;;;6281148;28;20256;-56
2023/01/15 05:48:49;;;;;;;3.97;3.67;;;6.50;1.00;;;;;;6271904;28;20247;-58
2023/01/15 05:51:54;;;;;;;2.50;2.50;;;6.30;1.00;;;;;;6284636;28;20244;-57
2023/01/15 05:54:58;;;;;;;2.50;2.50;;;6.10;1.00;;;;;;6272140;28;20229;-58
2023/01/15 05:58:01;;;;;;;2.47;2.47;;;6.50;1.00;;;;;;6277552;28;20248;-57
2023/01/15 06:01:07;;;;;;;2.60;2.60;;;6.40;1.00;;;;;;6262232;28;20469;-55
2023/01/15 06:04:13;;;;;;;2.90;2.80;;;6.20;1.00;;;;;;6273917;28;20233;-57
2023/01/15 06:07:17;;;;;;;2.50;2.50;;;6.50;1.00;;;;;;6278678;28;20605;-57
2023/01/15 06:10:20;;;;;;;2.67;2.67;;;6.30;1.00;;;;;;6283617;28;20229;-58
2023/01/15 06:13:24;;;;;;;2.90;2.80;;;6.30;1.00;;;;;;6282421;28;20229;-57
2023/01/15 06:16:27;;;;;;;3.03;2.90;;;6.20;1.00;;;;;;6280511;28;20724;-57
2023/01/15 06:19:30;;;;;;;2.63;2.53;;;6.40;1.00;;;;;;6280606;28;20598;-56
2023/01/15 06:22:37;;;;;;;2.50;2.40;;;6.30;1.00;;;;;;6278227;28;20378;-58
2023/01/15 06:25:40;;;;;;;2.90;2.80;;;6.40;1.00;;;;;;6279953;28;20391;-58
2023/01/15 06:28:45;;;;;;;2.93;2.83;;;6.60;1.00;;;;;;6281317;28;20249;-57
2023/01/15 06:31:48;;;;;;;2.63;2.50;;;6.20;1.00;;;;;;6279564;28;20295;-57
2023/01/15 06:34:52;;;;;;;2.80;2.60;;;6.30;1.00;;;;;;6274681;28;20334;-57
2023/01/15 06:37:56;;;;;;;2.70;2.70;;;6.20;1.00;;;;;;6274759;28;20466;-58
2023/01/15 06:41:00;;;;;;;3.30;3.10;;;6.40;1.00;;;;;;6281012;28;20526;-57
2023/01/15 06:47:24;;;;;;;2.83;2.70;;;6.30;1.00;;;;;;6271516;28;20230;-57
2023/01/15 06:50:27;;;;;;;3.07;2.97;;;6.50;1.00;;;;;;6282220;28;20744;-58
2023/01/15 06:53:31;;;;;;;3.43;3.33;;;6.20;1.00;;;;;;6281086;28;20233;-56
2023/01/15 06:56:34;;;;;;;3.03;2.83;;;6.30;1.00;;;;;;6280907;28;20229;-57
2023/01/15 06:59:37;;;;;;;3.37;3.27;;;6.40;1.00;;;;;;6286358;28;20236;-57
2023/01/15 07:02:41;;;;;;;3.30;3.20;;;6.60;1.00;;;;;;6280623;28;20225;-56
2023/01/15 07:05:44;;;;;;;3.60;3.50;;;6.50;1.00;;;;;;6276314;28;20608;-57
2023/01/15 07:08:48;;;;;;;2.80;2.80;;;6.40;1.00;;;;;;6273887;28;20827;-57
2023/01/15 07:11:51;;;;;;;3.00;2.90;;;6.50;1.00;;;;;;6288720;28;20247;-57
2023/01/15 07:14:54;;;;;;;3.30;3.17;;;6.60;1.00;;;;;;6297995;28;20236;-57
2023/01/15 07:17:57;;;;;;;2.70;2.60;;;6.10;1.00;;;;;;6278871;28;20233;-57
2023/01/15 07:21:01;;;;;;;2.80;2.80;;;6.50;1.00;;;;;;6278505;28;20625;-57
2023/01/15 07:24:06;;;;;;;3.10;3.10;;;6.40;1.00;;;;;;6289374;28;20647;-57
2023/01/15 07:27:09;;;;;;;3.20;3.10;;;6.60;1.00;;;;;;6281715;28;20236;-56
2023/01/15 07:30:13;;;;;;;3.40;3.30;;;6.10;1.00;;;;;;6288847;28;20273;-57
2023/01/15 07:33:16;;;;;;;3.57;3.40;;;6.60;1.00;;;;;;6282329;28;20221;-58
2023/01/15 07:36:19;;;;;;;3.30;3.20;;;6.20;1.00;;;;;;6277143;28;20252;-57
2023/01/15 07:39:24;;;;;;;3.63;3.53;;;6.30;1.00;;;;;;6284828;28;20615;-57
2023/01/15 07:52:29;;;;;;;2.90;2.90;;;6.30;1.00;;;;;;6283625;28;20229;-57
2023/01/15 07:55:35;;;;;;;3.30;3.20;;;6.00;1.00;;;;;;6277426;28;20350;-57
2023/01/15 07:58:38;;;;;;;3.13;3.03;;;6.30;1.00;;;;;;6278879;28;20234;-58
2023/01/15 08:01:41;;;;;;;3.40;3.30;;;6.10;1.00;;;;;;6277129;28;20764;-57
2023/01/15 08:04:46;;;;;;;7.53;6.93;;;6.40;1.00;;;;;;6282738;28;20242;-58
2023/01/15 08:07:49;;;;;;;3.57;3.40;;;6.00;1.00;;;;;;6282484;28;20237;-57
2023/01/15 08:17:35;;;;;;;3.50;3.30;;;6.00;1.00;;;;;;6278468;28;20237;-57
2023/01/15 08:20:38;;;;;;;4.20;3.40;;;6.20;1.00;;;;;;6274653;28;20225;-57
2023/01/15 08:23:42;;;;;;;3.70;3.40;;;6.40;1.00;;;;;;6282628;28;20240;-56
2023/01/15 08:26:46;;;;;;;3.50;3.30;;;6.20;1.00;;;;;;6270131;28;20596;-58
2023/01/15 08:29:49;;;;;;;4.00;3.80;;;6.40;1.00;;;;;;6284457;28;20233;-57
2023/01/15 08:32:53;;;;;;;3.63;3.43;;;6.10;1.00;;;;;;6283462;28;20237;-57
2023/01/15 08:35:57;;;;;;;3.60;3.40;;;6.10;1.00;;;;;;6284325;28;20502;-58
2023/01/15 08:39:00;;;;;;;3.20;3.10;;;6.20;1.00;;;;;;6281459;28;20241;-57
2023/01/15 08:42:05;;;;;;;4.03;3.90;;;6.50;1.00;;;;;;6284833;28;20379;-56
2023/01/15 08:45:09;;;;;;;4.20;3.90;;;6.50;1.00;;;;;;6283872;28;20225;-57
2023/01/15 08:48:12;;;;;;;4.20;4.00;;;6.20;1.00;;;;;;6285509;28;20257;-56
2023/01/15 08:51:15;;;;;;;3.63;3.53;;;6.20;1.00;;;;;;6288156;28;20240;-57
2023/01/15 08:54:20;;;;;;;4.20;4.00;;;6.30;1.00;;;;;;6281514;28;20279;-56
2023/01/15 08:57:24;;;;;;;4.40;4.30;;;6.40;1.00;;;;;;6277611;28;20733;-58
2023/01/15 09:00:27;;;;;;;3.57;3.40;;;6.50;1.00;;;;;;6288473;28;20241;-57
2023/01/15 09:03:30;;;;;;;3.50;3.40;;;6.40;1.00;;;;;;6284734;28;20235;-57
2023/01/15 09:06:33;;;;;;;3.30;3.20;;;6.30;1.00;;;;;;6277847;28;20237;-57
2023/01/15 09:09:36;;;;;;;3.47;3.37;;;6.50;1.00;;;;;;6276111;28;20768;-58
2023/01/15 09:12:41;;;;;;;3.57;3.47;;;6.80;1.00;;;;;;6279188;28;20472;-57
2023/01/15 09:15:44;;;;;;;4.03;3.90;;;6.50;1.00;;;;;;6282718;28;20897;-56
2023/01/15 09:18:47;;;;;;;3.70;3.60;;;6.50;1.00;;;;;;6283435;28;20241;-58
2023/01/15 09:21:50;;;;;;;3.40;3.30;;;6.70;1.00;;;;;;6276450;28;20713;-56
2023/01/15 09:24:53;;;;;;;3.67;3.60;;;6.60;1.00;;;;;;6284910;28;20233;-58
2023/01/15 09:27:57;;;;;;;3.07;2.97;;;6.50;1.00;;;;;;6282702;28;20576;-57
2023/01/15 09:31:00;;;;;;;3.33;3.13;;;6.40;1.00;;;;;;6284634;28;20240;-56
2023/01/15 09:34:04;;;;;;;3.30;3.30;;;6.70;1.00;;;;;;6282808;28;20240;-57
2023/01/15 09:37:07;;;;;;;3.53;3.33;;;6.90;1.00;;;;;;6278828;28;20411;-56
2023/01/15 09:40:43;;;;;;;3.43;3.33;;;6.70;1.00;;;;;;6282539;28;20234;-56
2023/01/15 09:43:58;;;;;;;3.23;3.13;;;7.20;1.00;;;;;;6275880;28;20244;-56
2023/01/15 09:47:08;;;;;;;2.90;2.90;;;6.80;1.00;;;;;;6272294;28;20245;-56
2023/01/15 09:50:27;;;;;;;3.37;3.27;;;7.10;1.00;;;;;;6271023;28;20649;-56
2023/01/15 09:53:53;;;;;;;3.47;3.27;;;7.20;1.00;;;;;;6278129;28;20624;-57
2023/01/15 09:56:57;;;;;;;2.93;2.83;;;7.20;1.00;;;;;;6271507;28;20371;-57
2023/01/15 10:00:04;;;;;;;3.40;3.20;;;7.20;1.00;;;;;;6282740;28;20636;-58
2023/01/15 10:03:21;;;;;;;6.20;5.33;;;7.20;1.00;;;;;;6290332;28;20404;-56
2023/01/15 10:06:27;;;;;;;3.00;3.00;;;6.90;1.00;;;;;;6274352;28;20236;-57
2023/01/15 10:09:36;;;;;;;3.10;3.00;;;7.10;1.00;;;;;;6279190;28;20238;-57
2023/01/15 10:12:41;;;;;;;2.97;2.90;;;7.20;1.00;;;;;;6270283;28;20332;-58
2023/01/15 10:15:47;;;;;;;2.93;2.93;;;7.40;1.00;;;;;;6281624;28;20244;-57
2023/01/15 10:18:51;;;;;;;2.90;2.90;;;7.10;1.00;;;;;;6278495;28;26270;-56
2023/01/15 10:22:00;;;;;;;2.90;2.80;;;7.20;1.00;;;;;;6281238;28;20714;-57
2023/01/15 10:25:09;;;;;;;3.00;3.00;;;7.20;1.00;;;;;;6277756;28;20237;-56
2023/01/15 10:28:20;;;;;;;2.83;2.83;;;7.10;1.00;;;;;;6287291;28;20554;-57
2023/01/15 10:31:45;;;;;;;3.37;3.20;;;7.10;1.00;;;;;;6283048;28;20352;-56
2023/01/15 10:35:19;;;;;;;3.60;3.50;;;7.20;1.00;;;;;;6280452;28;20241;-56
2023/01/15 10:38:28;;;;;;;3.20;3.00;;;7.40;1.00;;;;;;6277301;28;20241;-57
2023/01/15 10:41:52;;;;;;;3.13;3.10;;;7.50;1.00;;;;;;6284344;28;20249;-58
2023/01/15 10:45:01;;;;;;;3.37;3.10;;;7.30;1.00;;;;;;6270292;28;20599;-57
2023/01/15 10:48:12;;;;;;;3.53;3.43;;;7.40;1.00;;;;;;6279988;28;20229;-58
2023/01/15 10:51:18;;;;;;;3.27;3.17;;;7.40;1.00;;;;;;6283256;28;20240;-57
2023/01/15 10:54:27;;;;;;;3.43;3.33;;;7.50;1.00;;;;;;6272598;28;20226;-57
2023/01/15 10:57:42;;;;;;;3.07;3.07;;;7.50;1.00;;;;;;6276372;28;20640;-56
2023/01/15 11:00:51;;;;;;;3.17;3.17;;;7.50;1.00;;;;;;6275052;28;20318;-56
2023/01/15 11:03:55;;;;;;;3.67;3.57;;;7.60;1.00;;;;;;6272391;28;20241;-56
2023/01/15 11:06:59;;;;;;;3.40;3.30;;;7.80;1.00;;;;;;6279497;28;20293;-59
2023/01/15 11:10:06;;;;;;;3.70;3.60;;;7.50;1.00;;;;;;6282345;28;20237;-60
2023/01/15 11:20:17;;;;;;;3.33;3.23;;;8.00;1.00;;;;;;6280729;28;20237;-57
2023/01/15 11:23:22;;;;;;;3.47;3.27;;;7.80;1.00;;;;;;6281030;28;20229;-56
2023/01/15 11:26:27;;;;;;;3.30;3.20;;;7.70;1.00;;;;;;6280670;28;20269;-57
2023/01/15 11:29:33;;;;;;;3.37;3.27;;;7.80;1.00;;;;;;6279679;28;20237;-57
2023/01/15 11:32:38;;;;;;;3.30;3.10;;;7.70;1.00;;;;;;6279462;28;20237;-57
2023/01/15 11:35:50;;;;;;;3.40;3.30;;;7.80;1.00;;;;;;6280658;28;20736;-56
2023/01/15 11:38:54;;;;;;;3.20;3.10;;;7.50;1.00;;;;;;6282163;28;20698;-58
2023/01/15 11:52:11;;;;;;;3.20;3.10;;;7.80;1.00;;;;;;6275573;28;20725;-55
2023/01/15 11:55:18;;;;;;;3.50;3.30;;;7.60;1.00;;;;;;6280180;28;20666;-56
2023/01/15 11:58:23;;;;;;;4.10;3.40;;;7.60;1.00;;;;;;6283517;28;20230;-57
2023/01/15 12:01:30;;;;;;;3.10;3.00;;;7.70;1.00;;;;;;6279628;28;20757;-58
2023/01/15 12:04:37;;;;;;;3.10;2.93;;;7.60;1.00;;;;;;6281787;28;20230;-56
2023/01/15 12:07:41;;;;;;;3.03;2.70;;;7.90;1.00;;;;;;6279807;28;20310;-57
2023/01/15 12:11:04;;;;;;;2.50;2.50;;;7.70;1.00;;;;;;6298243;28;20468;-58
2023/01/15 12:14:50;;;;;;;3.63;3.43;;;7.60;1.00;;;;;;6284784;28;20485;-58
2023/01/15 12:18:16;;;;;;;3.27;3.00;;;7.70;1.00;;;;;;6280562;28;20235;-57
2023/01/15 12:21:43;;;;;;;2.97;2.87;;;7.70;1.00;;;;;;6281665;28;20240;-56
2023/01/15 12:25:33;;;;;;;3.23;3.10;;;7.60;1.00;;;;;;6282711;28;20721;-56
2023/01/15 12:28:40;;;;;;;3.27;3.23;;;7.80;1.00;;;;;;6193528;28;20243;-56
2023/01/15 12:31:47;;;;;;;3.30;3.10;;;7.60;1.00;;;;;;6284569;28;20718;-56
2023/01/15 12:34:58;;;;;;;3.53;3.23;;;7.50;1.00;;;;;;6284673;28;20241;-56
2023/01/15 12:38:12;;;;;;;3.27;3.07;;;7.50;1.00;;;;;;6287254;28;20615;-56
2023/01/15 12:41:21;;;;;;;2.70;2.60;;;7.60;1.00;;;;;;6284769;28;20744;-55
2023/01/15 12:47:58;;;;;;;3.13;3.00;;;7.60;1.00;;;;;;6287101;28;20232;-57
2023/01/15 12:51:04;;;;;;;3.20;3.00;;;7.60;1.00;;;;;;6283962;28;20293;-58
2023/01/15 12:54:12;;;;;;;3.60;3.33;;;7.60;1.00;;;;;;6286356;28;20244;-55
2023/01/15 12:57:22;;;;;;;2.87;2.73;;;7.60;1.00;;;;;;6287453;28;20244;-56
2023/01/15 13:00:28;;;;;;;3.30;3.20;;;7.70;1.00;;;;;;6282900;28;20233;-56
2023/01/15 13:03:40;;;;;;;3.70;2.90;;;7.60;1.00;;;;;;6278369;28;20317;-57
2023/01/15 13:06:47;;;;;;;3.57;3.33;;;7.60;1.00;;;;;;6283319;28;20732;-57
2023/01/15 13:09:58;;;;;;;2.80;2.70;;;7.60;1.00;;;;;;6276421;28;20499;-56
2023/01/15 13:13:15;;;;;;;2.60;2.60;;;7.70;1.00;;;;;;6275390;28;20232;-58
2023/01/15 13:16:21;;;;;;;2.87;2.70;;;7.80;1.00;;;;;;6284889;28;20617;-57
2023/01/15 13:19:37;;;;;;;6.00;3.10;;;7.80;1.00;;;;;;6280056;28;20612;-59
2023/01/15 13:22:47;;;;;;;3.53;3.27;;;7.70;1.00;;;;;;6283833;28;20705;-56
2023/01/15 13:26:11;;;;;;;3.30;3.20;;;8.00;1.00;;;;;;6283900;28;20229;-57
2023/01/15 13:29:25;;;;;;;3.13;2.93;;;7.90;1.00;;;;;;6278919;28;20229;-56
2023/01/15 13:32:32;;;;;;;2.77;2.70;;;8.00;1.00;;;;;;6283203;28;20233;-57
2023/01/15 13:35:41;;;;;;;4.97;3.20;;;7.80;1.00;;;;;;6282867;28;20230;-57
2023/01/15 13:38:49;;;;;;;2.70;2.60;;;7.60;1.00;;;;;;6286142;28;20242;-56
2023/01/15 13:45:28;;;;;;;3.10;2.90;;;7.70;1.00;;;;;;6279119;28;20230;-56
2023/01/15 13:48:34;;;;;;;2.90;2.70;;;7.60;1.00;;;;;;6284935;28;20936;-57
2023/01/15 13:51:48;;;;;;;3.00;2.90;;;7.50;1.00;;;;;;6285641;28;20229;-56
2023/01/15 13:54:52;;;;;;;2.90;2.80;;;7.40;1.00;;;;;;6283167;28;20305;-57
2023/01/15 13:57:55;;;;;;;4.23;3.00;;;7.40;1.00;;;;;;6276274;28;20233;-57
2023/01/15 14:01:06;;;;;;;4.10;3.77;;;7.30;1.00;;;;;;6270558;28;20234;-56
2023/01/15 14:04:14;;;;;;;2.97;2.87;;;7.20;1.00;;;;;;6276477;28;20845;-56
2023/01/15 14:07:19;;;;;;;3.20;3.10;;;7.40;1.00;;;;;;6271512;28;20240;-56
2023/01/15 14:10:26;;;;;;;3.47;3.37;;;7.40;1.00;;;;;;6284670;28;20234;-56
2023/01/15 14:14:02;;;;;;;3.80;3.50;;;7.50;1.00;;;;;;6278930;28;20230;-57
2023/01/15 14:17:29;;;;;;;3.30;3.00;;;7.40;1.00;;;;;;6275980;28;20618;-56
2023/01/15 14:28:53;;;;;;;3.20;3.10;;;7.30;1.00;;;;;;6279890;28;20237;-56
2023/01/15 14:32:08;;;;;;;2.90;2.90;;;7.30;1.00;;;;;;6285564;28;20255;-58
2023/01/15 14:35:41;;;;;;;3.37;3.17;;;7.20;1.00;;;;;;6274975;28;20225;-57
2023/01/15 14:38:50;;;;;;;3.30;3.10;;;7.30;1.00;;;;;;6269524;28;20246;-57
2023/01/15 14:45:26;;;;;;;3.33;3.13;;;7.20;1.00;;;;;;6270356;28;20225;-56
2023/01/15 14:48:38;;;;;;;3.20;3.10;;;7.10;1.00;;;;;;6267867;28;20230;-57
2023/01/15 14:51:50;;;;;;;3.07;2.97;;;7.20;1.00;;;;;;6280146;28;20244;-56
2023/01/15 14:54:54;;;;;;;3.53;3.33;;;7.10;1.00;;;;;;6272366;28;20231;-56
2023/01/15 14:58:01;;;;;;;3.53;3.23;;;7.20;1.00;;;;;;6278766;28;20240;-55
2023/01/15 15:01:13;;;;;;;3.27;3.17;;;7.10;1.00;;;;;;6270036;28;20231;-57
2023/01/15 15:04:32;;;;;;;3.07;2.83;;;7.40;1.00;;;;;;6274200;28;20729;-57
2023/01/15 15:07:44;;;;;;;3.33;3.20;;;7.30;1.00;;;;;;6275014;28;20703;-57
2023/01/15 15:10:53;;;;;;;3.40;3.10;;;7.10;1.00;;;;;;6274027;28;20233;-56
2023/01/15 15:13:57;;;;;;;3.03;2.93;;;7.00;1.00;;;;;;6283033;28;20237;-56
2023/01/15 15:17:05;;;;;;;4.30;3.40;;;6.90;1.00;;;;;;6275265;28;20244;-56
2023/01/15 15:20:22;;;;;;;3.63;3.43;;;6.80;1.00;;;;;;6272590;28;20694;-56
2023/01/15 15:23:31;;;;;;;3.40;3.20;;;6.80;1.00;;;;;;6272945;28;20240;-56
2023/01/15 15:26:36;;;;;;;2.90;2.80;;;7.20;1.00;;;;;;6284239;28;20248;-56
2023/01/15 15:29:39;;;;;;;2.90;2.73;;;6.80;1.00;;;;;;6273616;28;20358;-56
2023/01/15 15:32:44;;;;;;;3.17;3.07;;;7.10;1.00;;;;;;6282488;28;20664;-56
2023/01/15 15:35:50;;;;;;;3.10;3.10;;;6.90;1.00;;;;;;6278577;28;20334;-55
2023/01/15 15:38:56;;;;;;;3.77;3.53;;;6.70;1.00;;;;;;6278530;28;20241;-55
2023/01/15 15:48:52;;;;;;;3.73;3.53;;;6.40;1.00;;;;;;6278566;28;20245;-56
2023/01/15 15:51:55;;;;;;;4.03;3.63;;;6.40;1.00;;;;;;6284006;28;20244;-56
2023/01/15 15:55:02;;;;;;;3.70;3.50;;;6.50;1.00;;;;;;6280580;28;20269;-55
2023/01/15 15:58:07;;;;;;;3.70;3.50;;;6.70;1.00;;;;;;6282647;28;20259;-56
2023/01/15 16:01:11;;;;;;;3.73;3.53;;;6.30;1.00;;;;;;6274943;28;20237;-57
2023/01/15 16:04:19;;;;;;;3.20;3.13;;;6.30;1.00;;;;;;6284424;28;20237;-56
2023/01/15 16:07:25;;;;;;;3.70;3.40;;;6.30;1.00;;;;;;6282669;28;20399;-57
2023/01/15 16:10:32;;;;;;;2.80;2.80;;;6.30;1.00;;;;;;6283194;28;20339;-57
2023/01/15 16:13:41;;;;;;;3.37;3.30;;;6.10;1.00;;;;;;6277150;28;20236;-57
2023/01/15 16:16:45;;;;;;;3.30;3.10;;;6.20;1.00;;;;;;6281794;28;20245;-56
2023/01/15 16:19:49;;;;;;;3.03;3.03;;;6.40;1.00;;;;;;6281777;28;20248;-56
2023/01/15 16:22:57;;;;;;;3.90;3.60;;;6.10;1.00;;;;;;6279163;28;20225;-55
2023/01/15 16:26:06;;;;;;;3.57;3.23;;;5.90;1.00;;;;;;6282448;28;20733;-56
2023/01/15 16:29:19;;;;;;;4.07;3.77;;;6.30;1.00;;;;;;6278980;28;20659;-56
2023/01/15 16:32:26;;;;;;;3.77;3.77;;;5.90;1.00;;;;;;6281499;28;20222;-56
2023/01/15 16:35:31;;;;;;;3.30;3.20;;;6.00;1.00;;;;;;6280580;28;20252;-55
2023/01/15 16:38:37;;;;;;;4.03;3.93;;;5.80;1.00;;;;;;6281807;28;20225;-56
2023/01/15 16:41:42;;;;;;;3.10;3.07;;;5.70;1.00;;;;;;6281502;28;20392;-57
2023/01/15 16:44:52;;;;;;;3.30;3.20;;;5.90;1.00;;;;;;6281719;28;20730;-56
2023/01/15 16:48:09;;;;;;;3.40;3.30;;;5.80;1.00;;;;;;6281064;28;20931;-56
2023/01/15 16:51:32;;;;;;;3.20;3.20;;;5.80;1.00;;;;;;6277880;28;20721;-56
2023/01/15 16:54:45;;;;;;;3.53;3.43;;;6.10;1.00;;;;;;6282614;28;20225;-57
2023/01/15 16:58:34;;;;;;;3.10;3.00;;;5.80;1.00;;;;;;6277818;28;20226;-56
2023/01/15 17:01:41;;;;;;;3.87;3.57;;;6.00;1.00;;;;;;6278137;28;20236;-58
2023/01/15 17:04:45;;;;;;;4.00;3.87;;;5.70;1.00;;;;;;6278734;28;20275;-57
2023/01/15 17:07:50;;;;;;;3.50;3.40;;;5.70;1.00;;;;;;6281825;28;20714;-58
2023/01/15 17:10:55;;;;;;;3.10;3.10;;;5.80;1.00;;;;;;6280841;28;20602;-57
2023/01/15 17:14:18;;;;;;;3.10;3.03;;;5.70;1.00;;;;;;6277365;28;20226;-57
2023/01/15 17:17:27;;;;;;;3.60;3.40;;;6.10;1.00;;;;;;6285055;28;20597;-56
2023/01/15 17:20:33;;;;;;;3.57;3.40;;;5.80;1.00;;;;;;6276822;28;20637;-56
2023/01/15 17:23:40;;;;;;;3.47;3.37;;;5.90;1.00;;;;;;6283712;28;22223;-57
2023/01/15 17:26:43;;;;;;;3.53;3.27;;;5.80;1.00;;;;;;6281553;28;20392;-56
2023/01/15 17:29:48;;;;;;;3.87;3.57;;;5.80;1.00;;;;;;6291691;28;20271;-56
2023/01/15 17:32:51;;;;;;;3.67;3.47;;;5.80;1.00;;;;;;6285139;28;20399;-57
2023/01/15 17:35:55;;;;;;;3.70;3.50;;;5.90;1.00;;;;;;6279748;28;20248;-56
2023/01/15 17:38:58;;;;;;;3.67;3.47;;;5.90;1.00;;;;;;6277831;28;20664;-57
2023/01/15 17:42:01;;;;;;;3.97;3.77;;;5.70;1.00;;;;;;6282791;28;20458;-56
2023/01/15 17:45:06;;;;;;;3.60;3.40;;;5.70;1.00;;;;;;6283246;28;20248;-55
2023/01/15 17:48:12;;;;;;;3.07;3.03;;;5.60;1.00;;;;;;6274588;28;20446;-56
2023/01/15 17:51:15;;;;;;;3.20;3.10;;;5.70;1.00;;;;;;6278746;28;20230;-56